Time;durP1;ratioP1;P1;durP2;ratioP2;P2;SDS_P1;SDS_P2;PMS_P1;PMS_P2;Temp;Humidity;BMP_temperature;BMP_pressure;BME280_temperature;BME280_humidity;BME280_pressure;Samples;Min_cycle;Max_cycle;Signal;HPM_P1;HPM_P2
2021/03/05 00:00:37;;;;;;;4.10;2.28;;;23.40;45.20;;;;;;4995477;28;20069;-63
2021/03/05 00:03:04;;;;;;;3.25;2.00;;;23.40;45.20;;;;;;5014133;28;20060;-63
2021/03/05 00:05:30;;;;;;;3.70;2.03;;;23.40;45.20;;;;;;5003247;28;20038;-63
2021/03/05 00:07:56;;;;;;;3.97;1.95;;;23.30;45.20;;;;;;5003951;28;20065;-63
2021/03/05 00:10:30;;;;;;;4.47;2.10;;;23.30;45.20;;;;;;5005946;28;20172;-63
2021/03/05 00:12:56;;;;;;;3.30;1.70;;;23.30;45.20;;;;;;5003477;28;20030;-63
2021/03/05 00:15:27;;;;;;;3.17;1.90;;;23.30;45.20;;;;;;5006599;28;20100;-63
2021/03/05 00:17:53;;;;;;;3.75;2.10;;;23.30;45.20;;;;;;5002959;28;20088;-64
2021/03/05 00:20:23;;;;;;;3.60;2.28;;;23.30;45.20;;;;;;5009622;28;20034;-62
2021/03/05 00:22:49;;;;;;;3.95;2.30;;;23.30;45.20;;;;;;5005460;28;20022;-63
2021/03/05 00:25:15;;;;;;;3.42;2.10;;;23.30;45.20;;;;;;5010505;28;20033;-63
2021/03/05 00:27:40;;;;;;;3.10;1.90;;;23.30;45.20;;;;;;5009905;28;20034;-63
2021/03/05 00:30:07;;;;;;;3.40;2.08;;;23.30;45.20;;;;;;5007675;28;20063;-64
2021/03/05 00:32:35;;;;;;;3.65;2.10;;;23.30;45.20;;;;;;5010969;28;20393;-63
2021/03/05 00:35:02;;;;;;;3.72;2.25;;;23.30;45.20;;;;;;5009885;28;20371;-62
2021/03/05 00:37:27;;;;;;;3.38;1.77;;;23.30;45.20;;;;;;5010576;28;20495;-63
2021/03/05 00:39:53;;;;;;;3.45;1.83;;;23.30;45.20;;;;;;5009531;28;20030;-63
2021/03/05 00:42:18;;;;;;;4.10;2.08;;;23.20;45.20;;;;;;5009636;28;20037;-63
2021/03/05 00:44:44;;;;;;;3.28;1.92;;;23.20;45.20;;;;;;5008996;28;20750;-63
2021/03/05 00:47:10;;;;;;;2.92;1.80;;;23.20;45.20;;;;;;5010478;28;20136;-63
2021/03/05 00:49:35;;;;;;;3.75;1.90;;;23.20;45.20;;;;;;4998403;28;20029;-63
2021/03/05 00:52:01;;;;;;;3.45;1.85;;;23.20;45.20;;;;;;5007844;28;20152;-64
2021/03/05 00:54:27;;;;;;;3.28;2.00;;;23.20;45.20;;;;;;5010854;28;20058;-62
2021/03/05 00:56:52;;;;;;;3.42;1.85;;;23.20;45.20;;;;;;5010271;28;20157;-64
2021/03/05 00:59:18;;;;;;;3.30;2.05;;;23.10;45.20;;;;;;5008434;28;20496;-63
2021/03/05 01:01:44;;;;;;;3.30;1.92;;;23.10;45.10;;;;;;5006483;28;20053;-63
2021/03/05 01:04:10;;;;;;;2.90;1.80;;;23.20;45.20;;;;;;5009571;28;20424;-63
2021/03/05 01:06:35;;;;;;;3.70;1.70;;;23.10;45.20;;;;;;5025712;28;20037;-64
2021/03/05 01:09:01;;;;;;;2.88;1.65;;;23.10;45.20;;;;;;5009546;28;20034;-64
2021/03/05 01:11:27;;;;;;;3.38;1.70;;;23.10;45.20;;;;;;5010367;28;20033;-63
2021/03/05 01:13:52;;;;;;;3.40;1.90;;;23.10;45.20;;;;;;5007427;28;20026;-63
2021/03/05 01:16:18;;;;;;;3.78;1.50;;;23.10;45.20;;;;;;5005131;28;20030;-64
2021/03/05 01:18:44;;;;;;;3.20;1.80;;;23.10;45.20;;;;;;5009488;28;20045;-63
2021/03/05 01:21:10;;;;;;;3.95;1.80;;;23.10;45.20;;;;;;5010144;28;20056;-63
2021/03/05 01:23:35;;;;;;;3.47;1.92;;;23.10;45.20;;;;;;5000938;28;20029;-63
2021/03/05 01:26:01;;;;;;;2.50;1.70;;;23.10;45.20;;;;;;5009624;28;20024;-64
2021/03/05 01:28:27;;;;;;;2.67;1.70;;;23.10;45.20;;;;;;5009571;28;20025;-63
2021/03/05 01:30:53;;;;;;;3.15;1.77;;;23.10;45.20;;;;;;4993137;28;20154;-63
2021/03/05 01:33:19;;;;;;;3.05;1.52;;;23.10;45.20;;;;;;5010331;28;20412;-62
2021/03/05 01:35:44;;;;;;;3.15;1.70;;;23.00;45.20;;;;;;5010469;28;20025;-63
2021/03/05 01:38:10;;;;;;;3.25;1.80;;;23.00;45.10;;;;;;5007442;28;20534;-64
2021/03/05 01:40:39;;;;;;;2.65;1.60;;;23.00;45.20;;;;;;5008977;28;20032;-63
2021/03/05 01:43:10;;;;;;;2.87;1.67;;;23.00;45.20;;;;;;5008598;28;20052;-63
2021/03/05 01:45:37;;;;;;;2.55;1.55;;;23.00;45.20;;;;;;5009505;28;20283;-62
2021/03/05 01:48:14;;;;;;;2.60;1.60;;;23.00;45.20;;;;;;5010105;28;20028;-64
2021/03/05 01:50:59;;;;;;;2.80;1.50;;;23.00;45.20;;;;;;5000739;28;20034;-63
2021/03/05 01:53:26;;;;;;;2.30;1.50;;;23.00;45.10;;;;;;5003822;28;20030;-63
2021/03/05 01:55:53;;;;;;;2.28;1.48;;;23.00;45.20;;;;;;4987370;28;20065;-64
2021/03/05 01:58:19;;;;;;;2.38;1.55;;;23.00;45.20;;;;;;4990075;28;20038;-63
2021/03/05 02:00:54;;;;;;;2.35;1.40;;;23.00;45.20;;;;;;5005584;28;20042;-63
2021/03/05 02:03:19;;;;;;;2.83;1.70;;;23.00;45.20;;;;;;5002685;28;20364;-63
2021/03/05 02:05:45;;;;;;;2.65;1.60;;;23.00;45.20;;;;;;5006966;28;20030;-63
2021/03/05 02:08:13;;;;;;;2.95;1.70;;;22.90;45.20;;;;;;4997464;28;20421;-64
2021/03/05 02:10:40;;;;;;;3.67;2.10;;;22.90;45.20;;;;;;5008177;28;20092;-63
2021/03/05 02:13:05;;;;;;;3.05;1.60;;;22.90;45.20;;;;;;5006691;28;20524;-63
2021/03/05 02:15:37;;;;;;;3.03;1.70;;;22.90;45.20;;;;;;5008041;28;20022;-64
2021/03/05 02:18:09;;;;;;;2.45;1.52;;;22.90;45.20;;;;;;5009215;28;20453;-63
2021/03/05 02:21:03;;;;;;;2.38;1.48;;;22.90;45.20;;;;;;5007547;28;20033;-63
2021/03/05 02:24:07;;;;;;;2.42;1.50;;;22.90;45.20;;;;;;4989136;28;20543;-64
2021/03/05 02:27:03;;;;;;;2.40;1.60;;;22.90;45.20;;;;;;5005347;28;20113;-65
2021/03/05 02:30:02;;;;;;;3.22;1.70;;;22.80;45.20;;;;;;5007912;28;20419;-64
2021/03/05 02:32:39;;;;;;;2.80;1.55;;;22.80;45.20;;;;;;5005662;28;20125;-63
2021/03/05 02:35:07;;;;;;;2.80;1.60;;;22.80;45.20;;;;;;5008394;28;20322;-62
2021/03/05 02:37:36;;;;;;;3.00;1.55;;;22.80;45.20;;;;;;4990451;28;20022;-63
2021/03/05 02:40:08;;;;;;;2.20;1.30;;;22.80;45.20;;;;;;4998214;28;20080;-62
2021/03/05 02:42:47;;;;;;;2.47;1.45;;;22.80;45.20;;;;;;5005186;28;20061;-61
2021/03/05 02:45:22;;;;;;;2.35;1.27;;;22.80;45.20;;;;;;5007147;28;20490;-63
2021/03/05 02:47:54;;;;;;;2.42;1.40;;;22.80;45.30;;;;;;5006463;28;20057;-64
2021/03/05 02:50:23;;;;;;;2.30;1.40;;;22.80;45.20;;;;;;5008518;28;20033;-64
2021/03/05 02:52:52;;;;;;;2.03;1.30;;;22.80;45.20;;;;;;5007219;28;20044;-62
2021/03/05 02:55:20;;;;;;;2.58;1.50;;;22.80;45.30;;;;;;5007857;28;20045;-63
2021/03/05 02:57:49;;;;;;;2.30;1.27;;;22.80;45.30;;;;;;5008172;28;20113;-63
2021/03/05 03:00:16;;;;;;;2.03;1.20;;;22.80;45.80;;;;;;5004829;28;20025;-63
2021/03/05 03:02:43;;;;;;;2.35;1.55;;;22.70;45.20;;;;;;5005433;28;20037;-64
2021/03/05 03:05:10;;;;;;;2.40;1.40;;;22.70;45.20;;;;;;5007584;28;20500;-63
2021/03/05 03:07:39;;;;;;;2.15;1.33;;;22.80;45.30;;;;;;5007570;28;20396;-63
2021/03/05 03:10:06;;;;;;;1.87;1.30;;;22.70;45.20;;;;;;5007901;28;20645;-63
2021/03/05 03:12:34;;;;;;;2.80;1.45;;;22.70;45.20;;;;;;4999544;28;20296;-63
2021/03/05 03:15:03;;;;;;;2.10;1.30;;;22.70;45.20;;;;;;4997178;28;20030;-63
2021/03/05 03:17:29;;;;;;;2.33;1.45;;;22.70;45.80;;;;;;5007325;28;20048;-62
2021/03/05 03:19:55;;;;;;;2.42;1.25;;;22.70;45.30;;;;;;5005627;28;20116;-64
2021/03/05 03:22:22;;;;;;;2.25;1.30;;;22.70;45.30;;;;;;5006418;28;20125;-63
2021/03/05 03:24:48;;;;;;;2.22;1.38;;;22.70;45.30;;;;;;5004639;28;20018;-63
2021/03/05 03:27:14;;;;;;;1.70;1.17;;;22.70;45.30;;;;;;5005562;28;20052;-62
2021/03/05 03:29:41;;;;;;;3.25;1.40;;;22.70;45.30;;;;;;4995565;28;20030;-63
2021/03/05 03:32:10;;;;;;;1.90;1.17;;;22.70;45.30;;;;;;4992656;28;20080;-63
2021/03/05 03:34:40;;;;;;;1.77;1.30;;;22.70;45.30;;;;;;5008816;28;20033;-63
2021/03/05 03:37:07;;;;;;;2.33;1.50;;;22.70;45.30;;;;;;5005799;28;20038;-63
2021/03/05 03:39:34;;;;;;;1.73;1.20;;;22.60;45.30;;;;;;5005151;28;20137;-62
2021/03/05 03:42:02;;;;;;;1.58;1.00;;;22.70;45.30;;;;;;5006166;28;20425;-65
2021/03/05 03:44:27;;;;;;;1.80;1.20;;;22.60;45.20;;;;;;5005464;28;20133;-63
2021/03/05 03:46:54;;;;;;;2.40;1.30;;;22.70;45.30;;;;;;5007316;28;20109;-63
2021/03/05 03:49:44;;;;;;;1.92;1.27;;;22.70;45.30;;;;;;5011814;28;20494;-63
2021/03/05 03:52:17;;;;;;;2.17;1.35;;;22.60;45.30;;;;;;4986563;28;20552;-63
2021/03/05 03:54:43;;;;;;;1.98;1.20;;;22.60;45.30;;;;;;4996460;28;20567;-63
2021/03/05 03:57:12;;;;;;;2.05;1.20;;;22.60;45.30;;;;;;5011044;28;20049;-63
2021/03/05 03:59:39;;;;;;;2.42;1.30;;;22.60;45.30;;;;;;5010707;28;20050;-63
2021/03/05 04:02:06;;;;;;;1.67;1.20;;;22.60;45.30;;;;;;5009161;28;20057;-63
2021/03/05 04:04:34;;;;;;;2.17;1.20;;;22.60;45.30;;;;;;5011852;28;20114;-63
2021/03/05 04:07:01;;;;;;;2.22;1.20;;;22.60;45.30;;;;;;5008331;28;20468;-64
2021/03/05 04:09:30;;;;;;;1.70;1.10;;;22.60;45.30;;;;;;5007118;28;20473;-63
2021/03/05 04:11:57;;;;;;;2.63;1.30;;;22.60;45.30;;;;;;5003862;28;20330;-63
2021/03/05 04:14:27;;;;;;;2.03;1.15;;;22.60;45.40;;;;;;5010462;28;20084;-63
2021/03/05 04:16:54;;;;;;;2.33;1.30;;;22.60;45.40;;;;;;4998240;28;20036;-63
2021/03/05 04:19:22;;;;;;;1.27;0.95;;;22.60;45.40;;;;;;5011106;28;20026;-63
2021/03/05 04:21:49;;;;;;;1.97;1.30;;;22.60;45.90;;;;;;4996690;28;20246;-63
2021/03/05 04:24:15;;;;;;;2.28;1.40;;;22.60;45.40;;;;;;5009627;28;20033;-63
2021/03/05 04:26:41;;;;;;;1.63;1.13;;;22.60;45.40;;;;;;5010151;28;20730;-64
2021/03/05 04:29:07;;;;;;;2.05;1.20;;;22.50;45.30;;;;;;5024781;28;20026;-64
2021/03/05 04:31:32;;;;;;;2.80;1.27;;;22.50;45.40;;;;;;5002228;28;20053;-63
2021/03/05 04:33:58;;;;;;;2.17;1.20;;;22.50;45.40;;;;;;5010621;28;20124;-63
2021/03/05 04:36:24;;;;;;;2.22;1.13;;;22.50;45.40;;;;;;5009028;28;20056;-63
2021/03/05 04:38:49;;;;;;;1.95;1.10;;;22.50;45.40;;;;;;5003056;28;20490;-63
2021/03/05 04:41:15;;;;;;;2.20;1.10;;;22.50;45.40;;;;;;5009686;28;20030;-63
2021/03/05 04:43:41;;;;;;;2.53;1.20;;;22.50;45.40;;;;;;5008743;28;20034;-63
2021/03/05 04:46:06;;;;;;;2.00;1.10;;;22.50;45.40;;;;;;5008632;28;20350;-64
2021/03/05 04:48:32;;;;;;;1.70;1.20;;;22.50;45.40;;;;;;5009010;28;20069;-63
2021/03/05 04:50:58;;;;;;;1.60;1.10;;;22.50;46.00;;;;;;5009371;28;20026;-63
2021/03/05 04:53:24;;;;;;;1.88;1.10;;;22.50;45.40;;;;;;5005093;28;20044;-64
2021/03/05 04:55:49;;;;;;;2.03;1.05;;;22.50;45.40;;;;;;5008843;28;20770;-63
2021/03/05 04:58:15;;;;;;;1.50;0.93;;;22.50;46.00;;;;;;5008044;28;20128;-63
2021/03/05 05:00:41;;;;;;;1.58;1.08;;;22.50;45.40;;;;;;5005078;28;20042;-63
2021/03/05 05:03:06;;;;;;;1.85;1.05;;;22.40;45.40;;;;;;5008603;28;20030;-63
2021/03/05 05:05:32;;;;;;;2.20;1.02;;;22.50;45.50;;;;;;5009195;28;20176;-63
2021/03/05 05:07:58;;;;;;;2.13;1.10;;;22.40;45.40;;;;;;5008842;28;20033;-63
2021/03/05 05:10:24;;;;;;;1.40;1.00;;;22.40;45.50;;;;;;5006494;28;20107;-63
2021/03/05 05:12:50;;;;;;;1.67;1.00;;;22.40;45.50;;;;;;5005303;28;20080;-63
2021/03/05 05:15:16;;;;;;;1.52;1.00;;;22.40;45.50;;;;;;5008861;28;20057;-64
2021/03/05 05:17:42;;;;;;;1.80;1.10;;;22.40;45.60;;;;;;5010412;28;20131;-64
2021/03/05 05:20:13;;;;;;;1.85;1.20;;;22.40;45.60;;;;;;5003653;28;20018;-63
2021/03/05 05:22:39;;;;;;;1.83;1.10;;;22.40;45.60;;;;;;5007578;28;20335;-63
2021/03/05 05:25:06;;;;;;;2.13;1.10;;;22.40;45.60;;;;;;5008513;28;20710;-63
2021/03/05 05:27:32;;;;;;;1.70;1.13;;;22.40;45.60;;;;;;4986423;28;20053;-63
2021/03/05 05:29:58;;;;;;;1.77;1.10;;;22.40;45.60;;;;;;5006909;28;20022;-63
2021/03/05 05:32:23;;;;;;;1.63;1.02;;;22.40;45.60;;;;;;5004438;28;20413;-63
2021/03/05 05:34:49;;;;;;;1.90;1.30;;;22.40;45.60;;;;;;5008080;28;20022;-64
2021/03/05 05:37:14;;;;;;;2.88;1.20;;;22.40;45.70;;;;;;5006570;28;20037;-63
2021/03/05 05:39:40;;;;;;;1.75;1.02;;;22.40;45.70;;;;;;5007605;28;20428;-62
2021/03/05 05:42:07;;;;;;;1.98;1.15;;;22.40;45.70;;;;;;5007275;28;20108;-64
2021/03/05 05:44:33;;;;;;;1.60;1.10;;;22.40;45.70;;;;;;5007469;28;20041;-63
2021/03/05 05:47:01;;;;;;;1.90;1.10;;;22.40;45.70;;;;;;5008061;28;20026;-63
2021/03/05 05:49:32;;;;;;;2.70;1.10;;;22.40;45.70;;;;;;5007164;28;20030;-63
2021/03/05 05:52:00;;;;;;;1.95;1.10;;;22.40;45.70;;;;;;5008998;28;20036;-62
2021/03/05 05:54:28;;;;;;;1.65;1.10;;;22.30;45.70;;;;;;5010931;28;20025;-63
2021/03/05 05:56:54;;;;;;;2.00;1.05;;;22.30;45.70;;;;;;5015063;28;20048;-64
2021/03/05 05:59:23;;;;;;;1.80;1.10;;;22.40;45.70;;;;;;4991543;28;20034;-63
2021/03/05 06:01:50;;;;;;;2.50;1.40;;;22.30;45.70;;;;;;5006142;28;20188;-64
2021/03/05 06:04:16;;;;;;;2.00;1.13;;;22.30;45.70;;;;;;5008445;28;20037;-64
2021/03/05 06:06:43;;;;;;;1.80;1.00;;;22.30;45.70;;;;;;5007769;28;20057;-63
2021/03/05 06:09:09;;;;;;;1.88;1.00;;;22.30;45.70;;;;;;5006563;28;20096;-63
2021/03/05 06:11:36;;;;;;;1.92;1.10;;;22.30;46.20;;;;;;5008177;28;20029;-64
2021/03/05 06:14:10;;;;;;;1.73;1.05;;;22.30;45.60;;;;;;5003030;28;20420;-63
2021/03/05 06:16:55;;;;;;;2.15;1.23;;;22.30;45.60;;;;;;5006718;28;20048;-64
2021/03/05 06:19:22;;;;;;;2.13;1.08;;;22.30;45.40;;;;;;5007674;28;20469;-63
2021/03/05 06:21:48;;;;;;;1.60;1.00;;;22.30;45.40;;;;;;5007558;28;20034;-63
2021/03/05 06:24:14;;;;;;;1.70;1.00;;;22.30;45.40;;;;;;5006295;28;20037;-62
2021/03/05 06:27:00;;;;;;;2.30;1.20;;;22.30;45.40;;;;;;5003802;28;20036;-63
2021/03/05 06:29:38;;;;;;;1.80;1.20;;;22.30;45.40;;;;;;5007020;28;20026;-64
2021/03/05 06:32:04;;;;;;;1.70;1.00;;;22.30;45.40;;;;;;5007764;28;20053;-64
2021/03/05 06:34:42;;;;;;;2.08;1.25;;;22.30;45.40;;;;;;5006924;28;20077;-63
2021/03/05 06:37:08;;;;;;;1.67;1.00;;;22.30;45.40;;;;;;5004147;28;20018;-63
2021/03/05 06:39:35;;;;;;;2.13;1.20;;;22.30;45.40;;;;;;4992190;28;20060;-64
2021/03/05 06:42:19;;;;;;;1.75;1.00;;;22.30;45.40;;;;;;5004681;28;20437;-64
2021/03/05 06:44:45;;;;;;;1.38;0.90;;;22.20;45.30;;;;;;4998296;28;20038;-64
2021/03/05 06:47:22;;;;;;;1.88;0.95;;;22.20;45.30;;;;;;5008489;28;20033;-63
2021/03/05 06:49:49;;;;;;;1.95;0.80;;;22.20;45.30;;;;;;4992270;28;20030;-63
2021/03/05 06:52:17;;;;;;;1.90;1.10;;;22.20;45.30;;;;;;5007123;28;20034;-63
2021/03/05 06:54:44;;;;;;;1.95;1.10;;;22.20;45.80;;;;;;5003449;28;20061;-62
2021/03/05 06:57:11;;;;;;;1.35;0.95;;;22.20;45.10;;;;;;5006965;28;20104;-62
2021/03/05 06:59:46;;;;;;;1.30;0.90;;;22.30;45.10;;;;;;5005132;28;20361;-61
2021/03/05 07:02:17;;;;;;;1.55;0.90;;;22.30;45.00;;;;;;5006765;28;20523;-62
2021/03/05 07:04:42;;;;;;;1.33;0.90;;;22.30;45.00;;;;;;5008520;28;20029;-61
2021/03/05 07:07:10;;;;;;;1.60;0.93;;;22.30;44.90;;;;;;5004196;28;20136;-66
2021/03/05 07:09:55;;;;;;;1.52;0.88;;;22.30;44.80;;;;;;4999911;28;20069;-64
2021/03/05 07:12:24;;;;;;;1.40;1.00;;;22.40;44.80;;;;;;5005461;28;20384;-64
2021/03/05 07:15:06;;;;;;;1.77;1.08;;;22.40;44.70;;;;;;5006528;28;20346;-62
2021/03/05 07:17:32;;;;;;;1.65;0.90;;;22.40;44.60;;;;;;5004869;28;20030;-62
2021/03/05 07:19:58;;;;;;;1.85;0.88;;;22.40;44.50;;;;;;5008309;28;20063;-62
2021/03/05 07:22:27;;;;;;;1.42;0.90;;;22.40;44.50;;;;;;5003954;28;20774;-62
2021/03/05 07:24:55;;;;;;;0.98;0.70;;;22.40;44.40;;;;;;5001641;28;20061;-62
2021/03/05 07:27:28;;;;;;;0.95;0.73;;;22.40;44.30;;;;;;5006243;28;20467;-62
2021/03/05 07:29:56;;;;;;;1.30;0.80;;;22.40;44.30;;;;;;5006388;28;20021;-63
2021/03/05 07:32:26;;;;;;;1.70;0.95;;;22.40;44.30;;;;;;5006162;28;20041;-62
2021/03/05 07:35:05;;;;;;;1.45;0.90;;;22.40;44.20;;;;;;5015766;28;20022;-62
2021/03/05 07:37:32;;;;;;;1.77;0.80;;;22.40;44.20;;;;;;5002547;28;20102;-62
2021/03/05 07:40:10;;;;;;;1.60;0.90;;;22.40;44.20;;;;;;5007372;28;20050;-62
2021/03/05 07:42:37;;;;;;;1.85;0.80;;;22.40;44.10;;;;;;5006940;28;20042;-63
2021/03/05 07:45:05;;;;;;;2.05;1.00;;;22.30;44.10;;;;;;5006389;28;20029;-61
2021/03/05 07:47:33;;;;;;;1.40;0.90;;;22.30;44.10;;;;;;5007533;28;20117;-63
2021/03/05 07:50:00;;;;;;;2.20;0.82;;;22.30;44.10;;;;;;5007229;28;20030;-61
2021/03/05 07:52:26;;;;;;;1.30;0.85;;;22.30;44.10;;;;;;5006775;28;20034;-62
2021/03/05 07:54:52;;;;;;;1.58;0.85;;;22.30;44.10;;;;;;5006056;28;20030;-62
2021/03/05 07:57:20;;;;;;;2.10;1.00;;;22.30;44.10;;;;;;5006574;28;20120;-62
2021/03/05 07:59:49;;;;;;;1.80;0.90;;;22.30;44.10;;;;;;5006623;28;20113;-62
2021/03/05 08:02:15;;;;;;;1.98;0.90;;;22.30;44.10;;;;;;5005808;28;20510;-62
2021/03/05 08:04:50;;;;;;;1.45;0.90;;;22.30;44.10;;;;;;5003821;28;20046;-62
2021/03/05 08:07:15;;;;;;;1.10;0.70;;;22.30;44.10;;;;;;5002004;28;20033;-61
2021/03/05 08:09:41;;;;;;;1.50;0.90;;;22.30;44.10;;;;;;5006473;28;20032;-63
2021/03/05 08:15:16;;;;;;;1.48;0.80;;;22.30;44.10;;;;;;5000530;28;20449;-61
2021/03/05 08:17:43;;;;;;;1.50;0.75;;;22.20;44.10;;;;;;5001004;28;20099;-62
2021/03/05 08:20:29;;;;;;;1.67;0.80;;;22.20;44.10;;;;;;5002146;28;20538;-63
2021/03/05 08:23:01;;;;;;;1.55;0.80;;;22.20;44.10;;;;;;4993483;28;20188;-62
2021/03/05 08:25:34;;;;;;;1.92;0.80;;;22.20;44.10;;;;;;5004563;28;20400;-63
2021/03/05 08:28:02;;;;;;;1.73;0.85;;;22.20;44.10;;;;;;5002334;28;20183;-62
2021/03/05 08:30:34;;;;;;;2.05;0.85;;;22.20;44.10;;;;;;4998181;28;20424;-62
2021/03/05 08:33:07;;;;;;;1.00;0.70;;;22.20;44.10;;;;;;5013765;28;20472;-61
2021/03/05 08:35:36;;;;;;;1.05;0.65;;;22.20;44.10;;;;;;5010626;28;20037;-62
2021/03/05 08:38:01;;;;;;;1.92;0.93;;;22.20;44.10;;;;;;4999615;28;20103;-62
2021/03/05 08:40:27;;;;;;;1.73;0.80;;;22.20;44.10;;;;;;5020406;28;20038;-61
2021/03/05 08:43:14;;;;;;;1.17;0.80;;;22.20;44.10;;;;;;5009007;28;20072;-62
2021/03/05 08:46:04;;;;;;;1.73;0.90;;;22.20;44.10;;;;;;5010277;28;20073;-61
2021/03/05 08:48:38;;;;;;;1.58;0.80;;;22.20;44.10;;;;;;5010513;28;20022;-62
2021/03/05 08:51:15;;;;;;;1.50;0.82;;;22.20;44.20;;;;;;5025308;28;20034;-61
2021/03/05 08:53:44;;;;;;;1.50;1.00;;;22.20;44.20;;;;;;5009620;28;20030;-62
2021/03/05 08:56:22;;;;;;;1.37;0.80;;;22.10;44.70;;;;;;5010350;28;20053;-63
2021/03/05 08:59:03;;;;;;;2.17;0.90;;;22.10;44.20;;;;;;5016490;28;20031;-63
2021/03/05 09:01:34;;;;;;;1.58;0.80;;;22.20;44.30;;;;;;5004564;28;20405;-61
2021/03/05 09:04:10;;;;;;;1.42;0.90;;;22.10;44.30;;;;;;5007680;28;20484;-62
2021/03/05 09:06:35;;;;;;;2.00;0.98;;;22.10;44.30;;;;;;5006293;28;20664;-62
2021/03/05 09:09:11;;;;;;;1.48;0.80;;;22.20;44.40;;;;;;5009546;28;20033;-63
2021/03/05 09:11:37;;;;;;;0.93;0.70;;;22.10;44.40;;;;;;5010538;28;20426;-61
2021/03/05 09:14:21;;;;;;;1.73;1.00;;;22.10;44.40;;;;;;5008647;28;20125;-61
2021/03/05 09:17:01;;;;;;;1.88;0.80;;;22.10;44.40;;;;;;5009173;28;20053;-61
2021/03/05 09:19:34;;;;;;;;;;;22.10;44.40;;;;;;4992718;28;20134;-61
2021/03/05 09:22:10;;;;;;;1.05;0.70;;;22.10;44.40;;;;;;5006364;28;19925;-62
2021/03/05 09:25:05;;;;;;;1.95;0.88;;;22.10;44.50;;;;;;4999930;28;20062;-62
2021/03/05 09:27:33;;;;;;;2.33;0.90;;;22.10;44.50;;;;;;5007135;28;20144;-63
2021/03/05 09:30:10;;;;;;;1.17;0.80;;;22.10;44.60;;;;;;4990624;28;20030;-61
2021/03/05 09:32:48;;;;;;;1.20;0.85;;;22.10;44.60;;;;;;5007799;28;20091;-63
2021/03/05 09:35:14;;;;;;;1.25;0.80;;;22.10;44.70;;;;;;4999272;28;20105;-63
2021/03/05 09:37:40;;;;;;;1.45;0.82;;;22.10;44.60;;;;;;5007502;28;20453;-61
2021/03/05 09:40:08;;;;;;;1.58;1.00;;;22.10;45.20;;;;;;5006099;28;20089;-61
2021/03/05 09:42:55;;;;;;;1.77;0.70;;;22.10;44.80;;;;;;5000197;28;20036;-60
2021/03/05 09:45:40;;;;;;;1.42;0.75;;;22.10;44.80;;;;;;5005578;28;20089;-62
2021/03/05 09:48:08;;;;;;;1.63;0.88;;;22.10;44.80;;;;;;5000299;28;20104;-66
2021/03/05 09:50:35;;;;;;;1.70;0.90;;;22.10;44.80;;;;;;5002124;28;20060;-62
2021/03/05 09:53:27;;;;;;;1.38;0.90;;;22.10;44.80;;;;;;5008236;28;20111;-62
2021/03/05 09:55:54;;;;;;;1.58;0.75;;;22.10;44.90;;;;;;5006883;28;20437;-61
2021/03/05 09:58:20;;;;;;;1.88;1.08;;;22.10;44.90;;;;;;5007693;28;20045;-61
2021/03/05 10:00:47;;;;;;;1.88;0.80;;;22.10;44.90;;;;;;5003687;28;20056;-63
2021/03/05 10:03:14;;;;;;;1.98;0.80;;;22.10;44.90;;;;;;5002844;28;20030;-62
2021/03/05 10:05:42;;;;;;;1.45;0.80;;;22.10;45.00;;;;;;5005546;28;20056;-62
2021/03/05 10:08:11;;;;;;;1.20;0.75;;;22.10;45.00;;;;;;5003731;28;20102;-63
2021/03/05 10:10:59;;;;;;;1.63;0.90;;;22.10;45.00;;;;;;4996610;28;20030;-62
2021/03/05 10:13:43;;;;;;;2.03;0.90;;;22.10;45.10;;;;;;5003443;28;20038;-63
2021/03/05 10:16:23;;;;;;;2.25;0.90;;;22.10;45.10;;;;;;5002873;28;20101;-61
2021/03/05 10:18:52;;;;;;;2.50;1.30;;;22.20;45.10;;;;;;4995977;28;20513;-61
2021/03/05 10:21:20;;;;;;;1.80;1.00;;;22.20;45.10;;;;;;5003047;28;20358;-63
2021/03/05 10:23:46;;;;;;;1.77;0.90;;;22.20;45.40;;;;;;5002625;28;20045;-63
2021/03/05 10:26:12;;;;;;;2.20;1.00;;;22.20;45.20;;;;;;5004695;28;20060;-67
2021/03/05 10:28:39;;;;;;;1.95;1.00;;;22.20;45.20;;;;;;5005028;28;20037;-61
2021/03/05 10:31:05;;;;;;;1.73;0.80;;;22.30;45.20;;;;;;5003871;28;20037;-61
2021/03/05 10:33:39;;;;;;;1.30;0.80;;;22.30;45.40;;;;;;5005058;28;20034;-61
2021/03/05 10:36:06;;;;;;;1.58;1.00;;;22.30;45.50;;;;;;4993272;28;20041;-61
2021/03/05 10:38:33;;;;;;;1.15;0.70;;;22.40;45.50;;;;;;4993652;28;20084;-60
2021/03/05 10:40:58;;;;;;;1.70;0.93;;;22.40;45.40;;;;;;5002923;28;20712;-58
2021/03/05 10:43:24;;;;;;;1.45;0.90;;;22.40;45.30;;;;;;5000156;28;20030;-62
2021/03/05 10:45:50;;;;;;;1.30;0.80;;;22.40;45.30;;;;;;4992317;28;20025;-62
2021/03/05 10:48:15;;;;;;;2.22;0.80;;;22.50;45.30;;;;;;5000313;28;20038;-60
2021/03/05 10:50:41;;;;;;;1.92;1.30;;;22.50;45.30;;;;;;5003566;28;20147;-60
2021/03/05 10:53:07;;;;;;;2.33;1.00;;;22.50;45.30;;;;;;5005263;28;20137;-62
2021/03/05 10:55:32;;;;;;;2.83;1.00;;;22.50;45.30;;;;;;5003306;28;20463;-58
2021/03/05 10:57:58;;;;;;;1.52;0.90;;;22.50;45.20;;;;;;5003601;28;20033;-59
2021/03/05 11:00:24;;;;;;;1.63;0.90;;;22.50;45.20;;;;;;4997768;28;20038;-62
2021/03/05 11:02:50;;;;;;;1.25;0.80;;;22.50;45.20;;;;;;5002597;28;20117;-63
2021/03/05 11:05:17;;;;;;;1.63;0.93;;;22.50;45.20;;;;;;5004181;28;20116;-61
2021/03/05 11:07:42;;;;;;;3.10;1.13;;;22.60;45.20;;;;;;5002197;28;20041;-61
2021/03/05 11:10:08;;;;;;;1.92;0.93;;;22.60;45.20;;;;;;5000178;28;20029;-62
2021/03/05 11:12:34;;;;;;;1.58;0.93;;;22.60;45.10;;;;;;5001617;28;20423;-61
2021/03/05 11:15:00;;;;;;;8.02;1.20;;;22.60;45.20;;;;;;5002557;28;20115;-60
2021/03/05 11:17:26;;;;;;;1.88;1.00;;;22.70;45.20;;;;;;5005181;28;20040;-62
2021/03/05 11:19:52;;;;;;;2.67;1.10;;;22.70;45.20;;;;;;5004987;28;20038;-61
2021/03/05 11:22:17;;;;;;;3.63;1.10;;;22.70;45.10;;;;;;5003352;28;20144;-61
2021/03/05 11:24:43;;;;;;;2.13;1.10;;;22.70;45.10;;;;;;5004238;28;20508;-59
2021/03/05 11:27:08;;;;;;;2.42;1.02;;;22.80;45.60;;;;;;5019734;28;20112;-59
2021/03/05 11:29:34;;;;;;;1.48;0.90;;;22.80;45.10;;;;;;5004504;28;20098;-61
2021/03/05 11:32:03;;;;;;;2.55;1.10;;;22.80;45.10;;;;;;5004064;28;20099;-60
2021/03/05 11:34:28;;;;;;;2.42;1.05;;;22.80;45.00;;;;;;5003438;28;20113;-60
2021/03/05 11:36:54;;;;;;;3.33;1.20;;;22.80;45.00;;;;;;5000563;28;20042;-59
2021/03/05 11:39:19;;;;;;;2.70;1.15;;;22.80;44.90;;;;;;5002113;28;20131;-61
2021/03/05 11:41:45;;;;;;;3.05;1.10;;;22.90;44.90;;;;;;5000027;28;20128;-63
2021/03/05 11:44:11;;;;;;;1.70;0.95;;;22.90;44.90;;;;;;5001202;28;20021;-61
2021/03/05 11:46:37;;;;;;;1.67;1.00;;;22.90;44.90;;;;;;5000715;28;20037;-61
2021/03/05 11:49:03;;;;;;;2.75;1.25;;;23.00;44.90;;;;;;5002279;28;20642;-61
2021/03/05 11:51:29;;;;;;;2.58;1.02;;;23.00;44.90;;;;;;5002723;28;20038;-63
2021/03/05 11:53:54;;;;;;;2.30;1.17;;;23.00;44.80;;;;;;4996447;28;20136;-63
2021/03/05 11:56:20;;;;;;;2.00;1.10;;;23.00;44.80;;;;;;5001574;28;20029;-64
2021/03/05 11:58:45;;;;;;;2.00;1.15;;;23.00;44.80;;;;;;5001154;28;20056;-62
2021/03/05 12:01:13;;;;;;;2.58;1.50;;;23.00;44.70;;;;;;4993681;28;20038;-61
2021/03/05 12:03:39;;;;;;;2.75;0.98;;;23.10;44.70;;;;;;5000254;28;20022;-61
2021/03/05 12:06:05;;;;;;;2.60;1.08;;;23.00;44.70;;;;;;5000350;28;20914;-60
2021/03/05 12:08:31;;;;;;;3.45;1.27;;;23.10;44.60;;;;;;5001798;28;20026;-61
2021/03/05 12:10:56;;;;;;;2.72;1.30;;;23.10;44.60;;;;;;5000761;28;20116;-62
2021/03/05 12:13:22;;;;;;;2.13;1.20;;;23.10;44.60;;;;;;5000939;28;20026;-64
2021/03/05 12:15:47;;;;;;;2.13;1.23;;;23.10;44.60;;;;;;5004157;28;20057;-61
2021/03/05 12:18:14;;;;;;;2.92;1.25;;;23.10;44.60;;;;;;5005003;28;20029;-64
2021/03/05 12:20:40;;;;;;;3.28;1.10;;;23.10;44.50;;;;;;5004174;28;20590;-61
2021/03/05 12:23:06;;;;;;;2.90;1.20;;;23.10;44.50;;;;;;5004549;28;20112;-60
2021/03/05 12:25:32;;;;;;;2.22;1.10;;;23.10;44.50;;;;;;4997715;28;20026;-59
2021/03/05 12:27:58;;;;;;;1.80;1.00;;;23.10;44.50;;;;;;4989241;28;20072;-61
2021/03/05 12:30:24;;;;;;;2.83;1.02;;;23.20;44.60;;;;;;5005389;28;20089;-61
2021/03/05 12:32:50;;;;;;;1.58;1.00;;;23.20;44.60;;;;;;5004707;28;20052;-65
2021/03/05 12:35:17;;;;;;;1.95;1.02;;;23.20;44.60;;;;;;5006172;28;20022;-61
2021/03/05 12:37:43;;;;;;;2.97;1.10;;;23.20;44.50;;;;;;5005227;28;20098;-60
2021/03/05 12:40:12;;;;;;;2.38;1.15;;;23.20;44.50;;;;;;5005348;28;20030;-64
2021/03/05 12:42:38;;;;;;;2.35;1.10;;;23.20;44.50;;;;;;4999523;28;20040;-61
2021/03/05 12:45:05;;;;;;;2.58;1.20;;;23.20;44.50;;;;;;5003919;28;20049;-64
2021/03/05 12:47:31;;;;;;;2.13;1.20;;;23.20;44.50;;;;;;5004359;28;20112;-60
2021/03/05 12:49:57;;;;;;;2.65;1.20;;;23.20;44.50;;;;;;5000771;28;20041;-62
2021/03/05 12:52:23;;;;;;;2.30;1.10;;;23.20;44.50;;;;;;5004543;28;20426;-63
2021/03/05 12:54:48;;;;;;;3.40;1.40;;;23.10;44.40;;;;;;5006776;28;20030;-62
2021/03/05 12:57:14;;;;;;;2.25;1.10;;;23.20;44.50;;;;;;5005791;28;20030;-60
2021/03/05 12:59:40;;;;;;;2.15;1.23;;;23.20;44.50;;;;;;5006444;28;20033;-61